createdAt,value
2022-08-29T00:00:23.220Z,26.76
2022-08-29T00:02:58.125Z,26.58
2022-08-29T00:05:33.333Z,26.73
2022-08-29T00:08:01.665Z,26.86
2022-08-29T00:10:43.566Z,26.67
2022-08-29T00:13:15.089Z,26.85
2022-08-29T00:15:45.070Z,26.54
2022-08-29T00:18:19.814Z,26.05
2022-08-29T00:20:52.874Z,26.04
2022-08-29T00:23:22.613Z,26.17
2022-08-29T00:25:49.895Z,26.58
2022-08-29T00:28:17.358Z,26.48
2022-08-29T00:30:44.814Z,26.33
2022-08-29T00:33:16.504Z,26.35
2022-08-29T00:35:49.163Z,26.89
2022-08-29T00:38:19.158Z,26.83
2022-08-29T00:40:54.212Z,26.89
2022-08-29T00:43:35.068Z,26.65
2022-08-29T00:46:13.944Z,26.83
2022-08-29T00:48:42.420Z,26.83
2022-08-29T00:51:16.854Z,26.45
2022-08-29T00:53:48.191Z,26.60
2022-08-29T00:56:17.496Z,26.70
2022-08-29T00:58:57.694Z,26.22
2022-08-29T01:01:27.444Z,26.55
2022-08-29T01:03:55.010Z,25.32
2022-08-29T01:06:26.367Z,25.80
2022-08-29T01:08:57.344Z,25.68
2022-08-29T01:11:48.325Z,25.25
2022-08-29T01:14:21.181Z,25.47
2022-08-29T01:16:56.623Z,25.47
2022-08-29T01:20:08.581Z,25.19
2022-08-29T01:22:56.842Z,24.98
2022-08-29T01:25:28.937Z,25.44
2022-08-29T01:28:23.878Z,25.20
2022-08-29T01:31:06.541Z,25.25
2022-08-29T01:33:59.541Z,24.73
2022-08-29T01:36:56.192Z,24.63
2022-08-29T01:39:29.875Z,25.02
2022-08-29T01:42:05.462Z,25.01
2022-08-29T01:44:33.568Z,25.37
2022-08-29T01:47:03.373Z,25.70
2022-08-29T01:49:33.680Z,25.72
2022-08-29T01:52:02.374Z,25.81
2022-08-29T01:54:31.321Z,25.49
2022-08-29T01:56:58.636Z,25.75
2022-08-29T01:59:29.098Z,25.42
2022-08-29T02:02:16.150Z,25.50
2022-08-29T02:04:47.401Z,25.28
2022-08-29T02:07:20.042Z,24.95
2022-08-29T02:09:48.615Z,25.36
2022-08-29T02:12:16.637Z,25.12
2022-08-29T02:14:44.689Z,25.01
2022-08-29T02:17:12.182Z,24.71
2022-08-29T02:19:39.891Z,24.30
2022-08-29T02:22:09.681Z,24.63
2022-08-29T02:24:37.601Z,24.63
2022-08-29T02:27:05.481Z,24.51
2022-08-29T02:29:37.723Z,24.62
2022-08-29T02:32:14.071Z,24.70
2022-08-29T02:34:47.657Z,24.77
2022-08-29T02:37:16.886Z,24.88
2022-08-29T02:39:45.656Z,24.92
2022-08-29T02:42:14.986Z,25.06
2022-08-29T02:44:42.113Z,24.87
2022-08-29T02:47:09.508Z,24.63
2022-08-29T02:49:36.836Z,24.54
2022-08-29T02:52:06.829Z,24.63
2022-08-29T02:54:35.328Z,24.42
2022-08-29T02:57:05.013Z,24.61
2022-08-29T02:59:34.313Z,24.49
2022-08-29T03:02:04.358Z,24.35
2022-08-29T03:04:31.640Z,24.25
2022-08-29T03:07:01.158Z,24.22
2022-08-29T03:09:35.864Z,24.32
2022-08-29T03:12:03.378Z,24.57
2022-08-29T03:14:30.549Z,24.41
2022-08-29T03:17:00.026Z,24.29
2022-08-29T03:19:27.154Z,24.02
2022-08-29T03:22:01.008Z,23.77
2022-08-29T03:24:28.488Z,23.46
2022-08-29T03:26:56.748Z,23.58
2022-08-29T03:29:25.020Z,23.74
2022-08-29T03:31:52.454Z,23.77
2022-08-29T03:34:20.567Z,23.71
2022-08-29T03:36:47.666Z,23.62
2022-08-29T03:39:14.857Z,23.82
2022-08-29T03:41:45.712Z,23.47
2022-08-29T03:44:15.608Z,23.49
2022-08-29T03:46:45.308Z,23.24
2022-08-29T03:49:15.700Z,23.61
2022-08-29T03:51:43.206Z,23.48
2022-08-29T03:54:10.342Z,23.49
2022-08-29T03:56:40.164Z,23.56
2022-08-29T03:59:12.874Z,23.63
2022-08-29T04:01:41.749Z,23.60
2022-08-29T04:04:29.310Z,23.70
2022-08-29T04:06:56.450Z,23.65
2022-08-29T04:09:23.673Z,23.38
2022-08-29T04:11:53.510Z,23.27
2022-08-29T04:14:21.238Z,23.41
2022-08-29T04:16:50.101Z,23.31
2022-08-29T04:19:22.147Z,23.56
2022-08-29T04:21:52.525Z,23.78
2022-08-29T04:24:21.008Z,23.78
2022-08-29T04:26:48.175Z,23.67
2022-08-29T04:29:15.451Z,24.13
2022-08-29T04:31:44.042Z,23.84
2022-08-29T04:34:13.694Z,23.86
2022-08-29T04:36:45.511Z,23.63
2022-08-29T04:39:13.786Z,23.72
2022-08-29T04:41:42.502Z,23.86
2022-08-29T04:44:12.433Z,23.91
2022-08-29T04:46:40.014Z,23.72
2022-08-29T04:49:11.436Z,23.79
2022-08-29T04:51:43.528Z,23.88
2022-08-29T04:54:12.002Z,23.61
2022-08-29T04:56:39.957Z,23.99
2022-08-29T04:59:15.993Z,24.01
2022-08-29T05:01:45.917Z,23.69
2022-08-29T05:04:14.635Z,23.50
2022-08-29T05:06:42.512Z,23.84
2022-08-29T05:09:09.692Z,23.26
2022-08-29T05:11:37.251Z,23.48
2022-08-29T05:14:04.496Z,23.48
2022-08-29T05:16:35.154Z,23.98
2022-08-29T05:19:02.742Z,23.76
2022-08-29T05:21:36.649Z,23.86
2022-08-29T05:24:09.892Z,23.64
2022-08-29T05:26:43.223Z,23.57
2022-08-29T05:29:13.416Z,23.95
2022-08-29T05:31:42.226Z,22.86
2022-08-29T05:34:32.201Z,23.50
2022-08-29T05:37:00.872Z,23.54
2022-08-29T05:39:28.117Z,23.81
2022-08-29T05:41:57.168Z,24.48
2022-08-29T05:44:28.772Z,24.29
2022-08-29T05:47:00.457Z,23.91
2022-08-29T05:49:28.025Z,24.06
2022-08-29T05:51:56.284Z,24.01
2022-08-29T05:54:25.439Z,23.62
2022-08-29T05:56:57.437Z,23.72
2022-08-29T05:59:24.656Z,23.99
2022-08-29T06:01:51.945Z,23.56
2022-08-29T06:04:19.431Z,23.90
2022-08-29T06:06:48.652Z,24.19
2022-08-29T06:09:15.790Z,24.19
2022-08-29T06:11:48.276Z,24.12
2022-08-29T06:14:16.899Z,24.68
2022-08-29T06:16:44.167Z,25.51
2022-08-29T06:19:12.034Z,25.98
2022-08-29T06:21:39.552Z,26.68
2022-08-29T06:24:07.248Z,27.73
2022-08-29T06:26:35.485Z,27.13
2022-08-29T06:29:10.529Z,26.67
2022-08-29T06:31:38.960Z,26.44
2022-08-29T06:34:07.434Z,27.60
2022-08-29T06:36:37.904Z,26.88
2022-08-29T06:39:09.524Z,26.32
2022-08-29T06:41:42.171Z,25.88
2022-08-29T06:44:09.933Z,25.77
2022-08-29T06:46:41.576Z,26.36
2022-08-29T06:49:13.613Z,26.63
2022-08-29T06:51:42.528Z,26.40
2022-08-29T06:54:12.357Z,26.77
2022-08-29T06:56:42.614Z,26.42
2022-08-29T06:59:10.179Z,26.22
2022-08-29T07:01:37.691Z,26.92
2022-08-29T07:04:04.969Z,26.64
2022-08-29T07:06:36.203Z,28.00
2022-08-29T07:09:05.360Z,28.08
2022-08-29T07:11:36.610Z,27.77
2022-08-29T07:14:07.755Z,27.40
2022-08-29T07:16:38.896Z,27.85
2022-08-29T07:19:08.198Z,28.18
2022-08-29T07:21:35.703Z,28.05
2022-08-29T07:24:03.561Z,27.96
2022-08-29T07:26:36.916Z,27.16
2022-08-29T07:29:15.909Z,26.99
2022-08-29T07:31:43.287Z,26.01
2022-08-29T07:34:10.840Z,26.27
2022-08-29T07:36:38.986Z,26.42
2022-08-29T07:39:12.744Z,26.02
2022-08-29T07:41:42.015Z,26.71
2022-08-29T07:44:09.982Z,27.15
2022-08-29T07:46:37.845Z,27.68
2022-08-29T07:49:05.719Z,29.03
2022-08-29T07:51:33.168Z,28.87
2022-08-29T07:54:00.449Z,28.16
2022-08-29T07:56:43.979Z,27.85
2022-08-29T07:59:14.345Z,27.30
2022-08-29T08:01:41.554Z,27.90
2022-08-29T08:04:09.521Z,28.14
2022-08-29T08:06:38.170Z,28.44
2022-08-29T08:09:07.872Z,26.84
2022-08-29T08:11:38.698Z,27.86
2022-08-29T08:14:05.810Z,26.89
2022-08-29T08:16:33.722Z,27.13
2022-08-29T08:19:04.053Z,27.72
2022-08-29T08:21:31.124Z,28.46
2022-08-29T08:23:58.470Z,28.24
2022-08-29T08:26:28.198Z,28.52
2022-08-29T08:28:57.812Z,28.39
2022-08-29T08:31:25.457Z,28.43
2022-08-29T08:33:52.764Z,28.79
2022-08-29T08:36:22.677Z,28.48
2022-08-29T08:38:52.183Z,28.40
2022-08-29T08:42:16.829Z,28.52
2022-08-29T08:45:08.966Z,28.63
2022-08-29T08:48:06.323Z,27.59
2022-08-29T08:51:05.971Z,28.56
2022-08-29T08:53:41.208Z,28.44
2022-08-29T08:56:34.188Z,28.26
2022-08-29T08:59:21.060Z,28.50
2022-08-29T09:02:35.389Z,28.27
2022-08-29T09:05:29.990Z,27.99
2022-08-29T09:08:28.915Z,28.10
2022-08-29T09:11:13.450Z,28.18
2022-08-29T09:14:08.594Z,28.26
2022-08-29T09:16:44.995Z,27.80
2022-08-29T09:19:17.237Z,28.95
2022-08-29T09:21:57.656Z,29.55
2022-08-29T09:24:55.867Z,30.83
2022-08-29T09:27:30.668Z,31.92
2022-08-29T09:30:14.334Z,33.64
2022-08-29T09:32:56.383Z,32.09
2022-08-29T09:35:41.658Z,31.74
2022-08-29T09:38:20.269Z,32.11
2022-08-29T09:41:10.674Z,31.02
2022-08-29T09:43:40.643Z,32.59
2022-08-29T09:46:16.390Z,32.83
2022-08-29T09:48:57.866Z,34.24
2022-08-29T09:51:33.223Z,34.61
2022-08-29T09:54:23.364Z,33.70
2022-08-29T09:57:08.893Z,32.53
2022-08-29T09:59:46.212Z,31.72
2022-08-29T10:02:19.761Z,30.91
2022-08-29T10:05:00.460Z,29.91
2022-08-29T10:07:50.044Z,29.70
2022-08-29T10:10:18.709Z,30.63
2022-08-29T10:13:08.478Z,31.87
2022-08-29T10:15:51.190Z,32.07
2022-08-29T10:18:48.528Z,33.40
2022-08-29T10:21:47.523Z,32.07
2022-08-29T10:24:44.097Z,34.54
2022-08-29T10:27:32.099Z,35.62
2022-08-29T10:30:13.766Z,35.47
2022-08-29T10:34:01.948Z,35.43
2022-08-29T10:36:39.477Z,35.60
2022-08-29T10:39:34.785Z,35.42
2022-08-29T10:42:19.437Z,35.63
2022-08-29T10:45:07.078Z,35.00
2022-08-29T10:47:41.316Z,36.58
2022-08-29T10:50:43.641Z,35.27
2022-08-29T10:53:25.261Z,35.72
2022-08-29T10:56:05.874Z,33.66
2022-08-29T10:59:04.127Z,36.54
2022-08-29T11:02:32.756Z,35.88
2022-08-29T11:05:07.229Z,35.77
2022-08-29T11:08:00.687Z,36.10
2022-08-29T11:10:39.844Z,33.19
2022-08-29T11:13:19.967Z,32.68
2022-08-29T11:16:15.522Z,32.63
2022-08-29T11:19:05.762Z,33.46
2022-08-29T11:21:44.253Z,32.06
2022-08-29T11:24:17.108Z,33.07
2022-08-29T11:26:44.050Z,33.02
2022-08-29T11:29:38.432Z,33.12
2022-08-29T11:32:40.057Z,32.42
2022-08-29T11:35:51.652Z,31.44
2022-08-29T11:38:55.187Z,30.57
2022-08-29T11:41:27.707Z,30.66
2022-08-29T11:44:38.009Z,30.13
2022-08-29T11:47:40.732Z,30.13
2022-08-29T11:50:17.452Z,31.13
2022-08-29T11:53:09.531Z,30.59
2022-08-29T11:55:39.503Z,30.14
2022-08-29T11:58:15.797Z,29.90
2022-08-29T12:00:45.559Z,30.86
2022-08-29T12:03:34.877Z,31.84
2022-08-29T12:06:30.754Z,31.60
2022-08-29T12:09:13.876Z,32.63
2022-08-29T12:12:05.426Z,32.78
2022-08-29T12:14:37.890Z,33.02
2022-08-29T12:17:51.286Z,33.01
2022-08-29T12:20:37.527Z,32.63
2022-08-29T12:23:13.830Z,31.74
2022-08-29T12:26:03.721Z,32.84
2022-08-29T12:28:47.097Z,32.90
2022-08-29T12:31:35.960Z,32.83
2022-08-29T12:34:05.691Z,32.29
2022-08-29T12:37:16.352Z,32.48
2022-08-29T12:39:49.227Z,32.47
2022-08-29T12:42:16.174Z,32.63
2022-08-29T12:45:00.752Z,33.39
2022-08-29T12:47:38.023Z,33.60
2022-08-29T12:50:24.096Z,34.74
2022-08-29T12:53:26.247Z,33.63
2022-08-29T12:56:01.395Z,33.50
2022-08-29T12:58:40.188Z,33.67
2022-08-29T13:01:25.427Z,32.81
2022-08-29T13:04:15.157Z,32.60
2022-08-29T13:07:02.637Z,33.25
2022-08-29T13:09:52.606Z,32.45
2022-08-29T13:12:29.524Z,31.77
2022-08-29T13:15:01.612Z,30.96
2022-08-29T13:17:36.189Z,31.89
2022-08-29T13:20:46.164Z,31.73
2022-08-29T13:23:13.209Z,31.86
2022-08-29T13:26:05.001Z,31.89
2022-08-29T13:28:56.749Z,31.02
2022-08-29T13:31:32.424Z,31.20
2022-08-29T13:34:02.149Z,30.39
2022-08-29T13:36:47.231Z,31.25
2022-08-29T13:39:17.250Z,31.42
2022-08-29T13:41:49.409Z,30.07
2022-08-29T13:44:25.832Z,29.70
2022-08-29T13:46:57.751Z,30.88
2022-08-29T13:49:29.780Z,31.09
2022-08-29T13:51:58.294Z,31.25
2022-08-29T13:54:29.462Z,30.46
2022-08-29T13:57:03.326Z,30.15
2022-08-29T13:59:37.084Z,29.57
2022-08-29T14:02:09.227Z,29.60
2022-08-29T14:04:40.966Z,29.98
2022-08-29T14:07:31.444Z,30.68
2022-08-29T14:09:59.611Z,29.97
2022-08-29T14:12:33.000Z,30.37
2022-08-29T14:15:09.669Z,30.35
2022-08-29T14:17:40.376Z,30.07
2022-08-29T14:20:12.646Z,30.71
2022-08-29T14:22:42.790Z,30.27
2022-08-29T14:25:14.140Z,30.13
2022-08-29T14:27:42.024Z,30.02
2022-08-29T14:30:12.493Z,30.05
2022-08-29T14:32:39.950Z,30.13
2022-08-29T14:35:09.297Z,29.89
2022-08-29T14:37:39.399Z,29.71
2022-08-29T14:40:09.479Z,30.30
2022-08-29T14:42:41.727Z,29.67
2022-08-29T14:45:15.044Z,30.01
2022-08-29T14:47:43.636Z,29.49
2022-08-29T14:50:14.261Z,29.53
2022-08-29T14:52:44.769Z,29.25
2022-08-29T14:55:13.340Z,28.86
2022-08-29T14:57:43.418Z,29.35
2022-08-29T15:00:16.788Z,29.30
2022-08-29T15:02:46.772Z,29.07
2022-08-29T15:05:14.037Z,28.88
2022-08-29T15:07:42.249Z,29.02
2022-08-29T15:10:12.828Z,28.65
2022-08-29T15:12:41.039Z,28.66
2022-08-29T15:15:09.251Z,28.76
2022-08-29T15:17:36.888Z,28.80
2022-08-29T15:22:58.308Z,28.76
2022-08-29T15:25:26.222Z,28.54
2022-08-29T15:27:53.427Z,27.86
2022-08-29T15:30:25.107Z,28.29
2022-08-29T15:32:55.145Z,28.24
2022-08-29T15:35:24.857Z,29.01
2022-08-29T15:37:53.663Z,28.82
2022-08-29T15:40:21.325Z,28.29
2022-08-29T15:42:48.459Z,28.49
2022-08-29T15:45:18.043Z,28.38
2022-08-29T15:47:50.232Z,27.88
2022-08-29T15:50:21.458Z,28.14
2022-08-29T15:52:48.543Z,28.34
2022-08-29T15:55:15.904Z,28.09
2022-08-29T15:57:52.522Z,27.71
2022-08-29T16:00:29.506Z,27.85
2022-08-29T16:03:00.386Z,28.04
2022-08-29T16:05:27.669Z,27.72
2022-08-29T16:07:54.843Z,27.97
2022-08-29T16:10:25.966Z,27.94
2022-08-29T16:12:53.275Z,28.06
2022-08-29T16:15:20.818Z,27.60
2022-08-29T16:17:47.968Z,27.65
2022-08-29T16:20:15.451Z,28.63
2022-08-29T16:22:43.105Z,28.02
2022-08-29T16:25:12.960Z,28.45
2022-08-29T16:27:40.465Z,27.79
2022-08-29T16:30:10.307Z,28.00
2022-08-29T16:32:38.576Z,27.67
2022-08-29T16:35:07.283Z,28.03
2022-08-29T16:37:34.786Z,27.63
2022-08-29T16:40:04.293Z,28.43
2022-08-29T16:42:34.221Z,27.42
2022-08-29T16:45:06.435Z,27.88
2022-08-29T16:47:35.120Z,27.44
2022-08-29T16:50:03.745Z,27.29
2022-08-29T16:52:31.184Z,27.65
2022-08-29T16:54:58.387Z,27.98
2022-08-29T16:57:25.608Z,27.79
2022-08-29T16:59:52.704Z,27.40
2022-08-29T17:02:19.884Z,28.06
2022-08-29T17:04:48.950Z,27.99
2022-08-29T17:07:18.649Z,27.71
2022-08-29T17:09:45.762Z,27.83
2022-08-29T17:12:13.028Z,27.16
2022-08-29T17:14:41.728Z,27.00
2022-08-29T17:17:08.971Z,27.32
2022-08-29T17:19:36.150Z,27.42
2022-08-29T17:22:04.777Z,27.67
2022-08-29T17:24:31.934Z,27.48
2022-08-29T17:26:59.047Z,27.28
2022-08-29T17:29:26.199Z,27.22
2022-08-29T17:31:53.647Z,27.07
2022-08-29T17:34:20.722Z,27.34
2022-08-29T17:36:49.788Z,27.61
2022-08-29T17:39:17.271Z,27.61
2022-08-29T17:41:50.932Z,27.03
2022-08-29T17:44:18.025Z,27.05
2022-08-29T17:46:45.540Z,27.39
2022-08-29T17:49:12.992Z,26.94
2022-08-29T17:51:42.211Z,26.69
2022-08-29T17:54:14.938Z,26.66
2022-08-29T17:56:47.602Z,26.86
2022-08-29T17:59:18.062Z,27.28
2022-08-29T18:01:45.805Z,26.88
2022-08-29T18:04:14.079Z,26.60
2022-08-29T18:06:42.049Z,26.96
2022-08-29T18:09:09.673Z,27.11
2022-08-29T18:11:44.161Z,27.23
2022-08-29T18:14:13.152Z,27.27
2022-08-29T18:16:40.390Z,26.61
2022-08-29T18:19:08.233Z,27.01
2022-08-29T18:21:36.413Z,26.79
2022-08-29T18:24:06.524Z,26.41
2022-08-29T18:26:34.943Z,26.80
2022-08-29T18:29:06.704Z,26.89
2022-08-29T18:31:33.851Z,26.88
2022-08-29T18:34:01.608Z,26.93
2022-08-29T18:36:31.698Z,27.11
2022-08-29T18:38:59.593Z,26.84
2022-08-29T18:41:27.421Z,26.73
2022-08-29T18:43:54.592Z,26.31
2022-08-29T18:46:22.000Z,26.95
2022-08-29T18:48:51.651Z,27.04
2022-08-29T18:51:21.775Z,27.12
2022-08-29T18:53:49.266Z,26.71
2022-08-29T18:56:19.153Z,26.77
2022-08-29T18:58:46.204Z,26.35
2022-08-29T19:01:27.387Z,26.38
2022-08-29T19:03:57.876Z,26.70
2022-08-29T19:06:25.924Z,25.58
2022-08-29T19:08:55.167Z,26.28
2022-08-29T19:11:23.029Z,26.17
2022-08-29T19:13:52.445Z,26.15
2022-08-29T19:16:21.732Z,25.97
2022-08-29T19:18:49.589Z,26.21
2022-08-29T19:21:16.878Z,26.06
2022-08-29T19:23:52.482Z,25.97
2022-08-29T19:26:32.326Z,25.69
2022-08-29T19:29:12.620Z,25.61
2022-08-29T19:31:41.819Z,26.07
2022-08-29T19:34:12.220Z,25.61
2022-08-29T19:36:47.040Z,25.38
2022-08-29T19:39:15.791Z,25.93
2022-08-29T19:41:45.333Z,26.21
2022-08-29T19:44:12.507Z,26.32
2022-08-29T19:46:46.007Z,26.02
2022-08-29T19:49:16.378Z,26.19
2022-08-29T19:51:44.382Z,26.27
2022-08-29T19:54:13.889Z,26.07
2022-08-29T19:56:41.217Z,25.89
2022-08-29T19:59:14.680Z,25.88
2022-08-29T20:01:45.123Z,25.81
2022-08-29T20:04:12.640Z,25.77
2022-08-29T20:06:39.907Z,25.88
2022-08-29T20:09:07.615Z,25.67
2022-08-29T20:11:43.564Z,26.23
2022-08-29T20:14:22.335Z,26.28
2022-08-29T20:16:55.070Z,26.04
2022-08-29T20:19:22.625Z,26.17
2022-08-29T20:21:50.825Z,25.92
2022-08-29T20:24:19.512Z,25.94
2022-08-29T20:26:49.775Z,26.09
2022-08-29T20:29:20.767Z,26.19
2022-08-29T20:31:50.550Z,26.07
2022-08-29T20:34:20.251Z,26.38
2022-08-29T20:37:06.167Z,26.19
2022-08-29T20:39:36.083Z,25.94
2022-08-29T20:42:04.360Z,26.02
2022-08-29T20:44:37.686Z,26.24
2022-08-29T20:47:08.115Z,25.90
2022-08-29T20:49:45.163Z,25.67
2022-08-29T20:52:14.779Z,25.82
2022-08-29T20:54:42.170Z,25.86
2022-08-29T20:57:14.966Z,25.33
2022-08-29T20:59:44.215Z,25.30
2022-08-29T21:02:11.592Z,25.66
2022-08-29T21:04:57.721Z,25.66
2022-08-29T21:07:25.734Z,25.60
2022-08-29T21:09:54.182Z,25.61
2022-08-29T21:12:21.784Z,25.37
2022-08-29T21:14:54.826Z,25.59
2022-08-29T21:17:22.383Z,25.79
2022-08-29T21:19:51.659Z,25.66
2022-08-29T21:22:22.979Z,25.70
2022-08-29T21:24:54.199Z,25.31
2022-08-29T21:27:21.511Z,25.64
2022-08-29T21:29:55.728Z,25.71
2022-08-29T21:32:23.177Z,25.72
2022-08-29T21:34:50.363Z,25.42
2022-08-29T21:37:18.278Z,25.52
2022-08-29T21:39:47.793Z,25.87
2022-08-29T21:42:14.984Z,25.84
2022-08-29T21:44:42.661Z,25.66
2022-08-29T21:47:09.844Z,25.83
2022-08-29T21:49:36.946Z,25.45
2022-08-29T21:52:04.471Z,25.66
2022-08-29T21:54:31.517Z,25.25
2022-08-29T21:56:58.864Z,25.70
2022-08-29T21:59:27.919Z,25.61
2022-08-29T22:01:56.066Z,25.61
2022-08-29T22:04:28.063Z,25.48
2022-08-29T22:06:59.207Z,25.27
2022-08-29T22:09:30.191Z,25.21
2022-08-29T22:11:58.508Z,25.42
2022-08-29T22:14:47.078Z,25.60
2022-08-29T22:17:16.084Z,24.82
2022-08-29T22:19:43.258Z,25.42
2022-08-29T22:22:11.152Z,25.25
2022-08-29T22:24:38.559Z,25.14
2022-08-29T22:27:06.116Z,25.62
2022-08-29T22:29:35.391Z,25.68
2022-08-29T22:32:02.799Z,25.91
2022-08-29T22:34:29.989Z,26.15
2022-08-29T22:36:57.066Z,25.57
2022-08-29T22:39:24.291Z,25.50
2022-08-29T22:41:51.451Z,25.57
2022-08-29T22:47:08.233Z,25.77
2022-08-29T22:49:37.121Z,25.49
2022-08-29T22:52:04.836Z,25.61
2022-08-29T22:54:40.422Z,25.66
2022-08-29T22:57:14.868Z,25.78
2022-08-29T22:59:46.008Z,25.83
2022-08-29T23:02:13.813Z,25.81
2022-08-29T23:04:42.109Z,25.69
2022-08-29T23:07:11.663Z,25.69
2022-08-29T23:09:43.368Z,25.16
2022-08-29T23:12:13.531Z,25.66
2022-08-29T23:14:43.487Z,25.49
2022-08-29T23:17:10.688Z,25.83
2022-08-29T23:19:41.035Z,25.22
2022-08-29T23:22:10.633Z,25.08
2022-08-29T23:24:49.764Z,25.24
2022-08-29T23:27:30.257Z,25.08
2022-08-29T23:29:59.472Z,24.77
2022-08-29T23:32:27.529Z,24.90
2022-08-29T23:34:55.197Z,25.44
2022-08-29T23:37:25.258Z,24.95
2022-08-29T23:39:52.366Z,24.90
2022-08-29T23:42:19.624Z,25.53
2022-08-29T23:44:48.380Z,25.45
2022-08-29T23:47:16.980Z,25.25
2022-08-29T23:49:44.495Z,25.22
2022-08-29T23:52:13.952Z,25.45
2022-08-29T23:54:41.324Z,25.53
2022-08-29T23:57:10.975Z,25.21
2022-08-29T23:59:57.167Z,25.66
